Time;durP1;ratioP1;P1;durP2;ratioP2;P2;SDS_P1;SDS_P2;PMS_P1;PMS_P2;Temp;Humidity;BMP_temperature;BMP_pressure;BME280_temperature;BME280_humidity;BME280_pressure;Samples;Min_cycle;Max_cycle;Signal;HPM_P1;HPM_P2
2022/12/12 00:01:45;;;;;;;6.18;4.40;;;;;;;;;;5096947;28;20032;-83
2022/12/12 00:04:11;;;;;;;5.70;4.80;;;;;;;;;;5095410;28;20036;-80
2022/12/12 00:06:36;;;;;;;6.68;4.80;;;;;;;;;;5096301;28;20073;-80
2022/12/12 00:09:02;;;;;;;6.03;4.35;;;;;;;;;;5096219;28;20103;-80
2022/12/12 00:11:28;;;;;;;6.05;4.60;;;;;;;;;;5095291;28;20038;-80
2022/12/12 00:13:53;;;;;;;6.88;4.70;;;;;;;;;;5078167;28;20394;-81
2022/12/12 00:16:19;;;;;;;7.60;4.22;;;;;;;;;;5095460;28;20084;-81
2022/12/12 00:18:45;;;;;;;6.50;4.40;;;;;;;;;;5077936;28;20058;-81
2022/12/12 00:21:20;;;;;;;5.70;4.63;;;;;;;;;;5095949;28;20084;-81
2022/12/12 00:23:46;;;;;;;6.53;4.13;;;;;;;;;;5096104;28;20032;-81
2022/12/12 00:26:18;;;;;;;5.95;4.35;;;;;;;;;;5077722;28;20062;-82
2022/12/12 00:28:43;;;;;;;5.03;4.25;;;;;;;;;;5061134;28;20016;-82
2022/12/12 00:31:09;;;;;;;5.05;4.43;;;;;;;;;;5096146;28;20032;-82
2022/12/12 00:33:34;;;;;;;5.28;4.28;;;;;;;;;;5094492;28;20081;-82
2022/12/12 00:35:59;;;;;;;5.75;4.63;;;;;;;;;;5095804;28;20036;-82
2022/12/12 00:38:25;;;;;;;4.95;4.15;;;;;;;;;;5077536;28;20030;-82
2022/12/12 00:40:55;;;;;;;5.97;4.40;;;;;;;;;;5095708;28;20113;-82
2022/12/12 00:43:20;;;;;;;6.40;4.70;;;;;;;;;;5095916;28;20039;-82
2022/12/12 00:45:45;;;;;;;5.47;4.50;;;;;;;;;;5077320;28;20036;-82
2022/12/12 00:48:11;;;;;;;4.78;4.20;;;;;;;;;;5095898;28;20107;-83
2022/12/12 00:50:36;;;;;;;4.50;3.92;;;;;;;;;;5095514;28;20039;-81
2022/12/12 00:53:02;;;;;;;5.75;4.45;;;;;;;;;;5077415;28;20536;-82
2022/12/12 00:55:27;;;;;;;5.53;3.97;;;;;;;;;;5077267;28;20030;-81
2022/12/12 00:57:53;;;;;;;6.32;4.70;;;;;;;;;;5094294;28;20032;-81
2022/12/12 01:00:20;;;;;;;5.43;4.20;;;;;;;;;;5095273;28;20032;-81
2022/12/12 01:02:46;;;;;;;6.75;4.90;;;;;;;;;;5077010;28;20118;-81
2022/12/12 01:05:12;;;;;;;6.03;4.28;;;;;;;;;;5095178;28;20055;-80
2022/12/12 01:07:37;;;;;;;5.22;4.72;;;;;;;;;;5076967;28;20547;-81
2022/12/12 01:10:04;;;;;;;5.07;4.35;;;;;;;;;;5077126;28;20067;-80
2022/12/12 01:12:30;;;;;;;4.97;4.47;;;;;;;;;;5094513;28;20410;-81
2022/12/12 01:14:55;;;;;;;7.07;4.80;;;;;;;;;;5077267;28;20028;-81
2022/12/12 01:17:20;;;;;;;4.85;4.30;;;;;;;;;;5095513;28;20032;-81
2022/12/12 01:19:46;;;;;;;6.28;4.80;;;;;;;;;;5060238;28;20039;-82
2022/12/12 01:22:11;;;;;;;6.57;4.65;;;;;;;;;;5076596;28;20399;-81
2022/12/12 01:24:37;;;;;;;16.52;4.80;;;;;;;;;;5094785;28;20059;-81
2022/12/12 01:27:02;;;;;;;5.10;4.35;;;;;;;;;;5094688;28;20024;-81
2022/12/12 01:29:27;;;;;;;6.35;4.75;;;;;;;;;;5094765;28;20474;-81
2022/12/12 01:31:53;;;;;;;5.20;4.70;;;;;;;;;;5094720;28;20031;-81
2022/12/12 01:34:18;;;;;;;5.45;4.78;;;;;;;;;;5076573;28;20034;-81
2022/12/12 01:36:43;;;;;;;6.25;4.80;;;;;;;;;;5092772;28;20102;-82
2022/12/12 01:39:09;;;;;;;5.68;5.07;;;;;;;;;;5094807;28;20039;-81
2022/12/12 01:41:34;;;;;;;5.60;4.43;;;;;;;;;;5094517;28;20423;-81
2022/12/12 01:44:01;;;;;;;7.00;5.15;;;;;;;;;;5076836;28;20040;-80
2022/12/12 01:46:38;;;;;;;7.57;4.97;;;;;;;;;;5094459;28;20051;-80
2022/12/12 01:49:23;;;;;;;5.03;4.50;;;;;;;;;;5076557;28;20078;-80
2022/12/12 01:51:55;;;;;;;6.05;4.97;;;;;;;;;;5076190;28;20046;-80
2022/12/12 01:54:26;;;;;;;7.90;4.70;;;;;;;;;;5093086;28;20088;-82
2022/12/12 01:56:53;;;;;;;6.00;4.60;;;;;;;;;;5092946;28;20016;-82
2022/12/12 01:59:20;;;;;;;7.60;4.85;;;;;;;;;;5094213;28;20024;-83
2022/12/12 02:01:46;;;;;;;6.22;4.88;;;;;;;;;;5092573;28;20035;-82
2022/12/12 02:04:11;;;;;;;6.15;5.10;;;;;;;;;;5094518;28;20061;-81
2022/12/12 02:06:38;;;;;;;6.47;4.90;;;;;;;;;;5092879;28;20020;-83
2022/12/12 02:09:07;;;;;;;5.85;5.07;;;;;;;;;;5094263;28;20058;-82
2022/12/12 02:11:37;;;;;;;6.32;5.30;;;;;;;;;;5059204;28;20016;-81
2022/12/12 02:14:02;;;;;;;5.90;4.75;;;;;;;;;;5092760;28;20123;-81
2022/12/12 02:17:09;;;;;;;8.88;4.90;;;;;;;;;;5076128;28;20028;-81
2022/12/12 02:19:56;;;;;;;6.50;4.85;;;;;;;;;;5031886;28;20542;-81
2022/12/12 02:22:49;;;;;;;8.80;5.20;;;;;;;;;;5014849;28;20041;-81
2022/12/12 02:25:23;;;;;;;5.93;4.85;;;;;;;;;;5014893;28;20392;-81
2022/12/12 02:27:58;;;;;;;6.40;4.70;;;;;;;;;;5015072;28;20118;-82
2022/12/12 02:30:29;;;;;;;5.47;4.60;;;;;;;;;;5031632;28;20472;-82
2022/12/12 02:33:03;;;;;;;6.28;5.20;;;;;;;;;;5014908;28;20551;-82
2022/12/12 02:36:07;;;;;;;4.95;4.30;;;;;;;;;;5014836;28;20025;-81
2022/12/12 02:39:09;;;;;;;6.10;5.20;;;;;;;;;;5031404;28;20076;-80
2022/12/12 02:41:43;;;;;;;5.93;4.53;;;;;;;;;;5031625;28;20045;-80
2022/12/12 02:44:30;;;;;;;5.88;4.88;;;;;;;;;;4998247;28;20500;-81
2022/12/12 02:47:00;;;;;;;6.78;5.10;;;;;;;;;;5013886;28;20033;-80
2022/12/12 02:49:39;;;;;;;6.45;4.63;;;;;;;;;;5015027;28;20388;-81
2022/12/12 02:52:06;;;;;;;6.25;4.82;;;;;;;;;;5014877;28;20045;-81
2022/12/12 02:54:31;;;;;;;5.65;4.78;;;;;;;;;;5070842;28;20475;-80
2022/12/12 02:56:58;;;;;;;6.18;4.38;;;;;;;;;;5089029;28;20024;-80
2022/12/12 02:59:28;;;;;;;6.60;5.07;;;;;;;;;;5073471;28;20025;-81
2022/12/12 03:02:06;;;;;;;5.50;4.57;;;;;;;;;;5089320;28;20047;-81
2022/12/12 03:08:01;;;;;;;7.60;4.90;;;;;;;;;;5073069;28;20060;-80
2022/12/12 03:10:48;;;;;;;6.35;4.95;;;;;;;;;;5071793;28;20031;-81
2022/12/12 03:13:37;;;;;;;6.03;4.40;;;;;;;;;;5073188;28;20036;-81
2022/12/12 03:16:38;;;;;;;4.95;4.45;;;;;;;;;;5071785;28;20024;-81
2022/12/12 03:19:27;;;;;;;6.68;4.70;;;;;;;;;;5069008;28;20050;-80
2022/12/12 03:21:59;;;;;;;6.20;4.75;;;;;;;;;;5079736;28;20177;-80
2022/12/12 03:24:30;;;;;;;6.18;4.82;;;;;;;;;;5058372;28;20024;-80
2022/12/12 03:27:08;;;;;;;6.30;4.68;;;;;;;;;;5093058;28;20020;-80
2022/12/12 03:29:37;;;;;;;6.45;4.57;;;;;;;;;;5092099;28;20028;-79
2022/12/12 03:32:07;;;;;;;5.88;4.88;;;;;;;;;;5074938;28;20057;-80
2022/12/12 03:34:42;;;;;;;6.57;4.60;;;;;;;;;;5075053;28;20036;-80
2022/12/12 03:37:24;;;;;;;7.35;4.68;;;;;;;;;;5074912;28;20028;-80
2022/12/12 03:39:53;;;;;;;6.93;4.55;;;;;;;;;;5092066;28;20028;-80
2022/12/12 03:42:22;;;;;;;7.45;4.60;;;;;;;;;;5091661;28;20126;-80
2022/12/12 03:44:52;;;;;;;8.13;4.90;;;;;;;;;;5093110;28;20034;-80
2022/12/12 03:47:32;;;;;;;7.35;4.57;;;;;;;;;;5074792;28;20027;-80
2022/12/12 03:50:10;;;;;;;5.80;4.55;;;;;;;;;;5074681;28;20081;-80
2022/12/12 03:52:53;;;;;;;6.47;4.45;;;;;;;;;;5091680;28;20024;-81
2022/12/12 03:55:33;;;;;;;6.18;4.65;;;;;;;;;;5074825;28;20485;-81
2022/12/12 03:58:04;;;;;;;5.97;4.70;;;;;;;;;;5074713;28;20058;-81
2022/12/12 04:00:31;;;;;;;6.57;4.72;;;;;;;;;;5078295;28;20024;-80
2022/12/12 04:02:59;;;;;;;5.05;4.50;;;;;;;;;;5095531;28;20032;-81
2022/12/12 04:05:36;;;;;;;5.18;4.38;;;;;;;;;;5096373;28;20019;-80
2022/12/12 04:08:06;;;;;;;5.18;4.43;;;;;;;;;;5078211;28;20068;-80
2022/12/12 04:13:41;;;;;;;7.65;4.95;;;;;;;;;;5095734;28;20035;-81
2022/12/12 04:16:22;;;;;;;6.65;4.78;;;;;;;;;;5095046;28;20024;-81
2022/12/12 04:19:10;;;;;;;9.95;4.80;;;;;;;;;;5077975;28;20055;-81
2022/12/12 04:24:32;;;;;;;6.18;4.50;;;;;;;;;;5095582;28;20051;-81
2022/12/12 04:27:11;;;;;;;5.20;4.40;;;;;;;;;;5077881;28;20016;-81
2022/12/12 04:29:59;;;;;;;5.22;4.57;;;;;;;;;;5077871;28;20390;-81
2022/12/12 04:32:43;;;;;;;6.32;4.90;;;;;;;;;;5095279;28;20109;-81
2022/12/12 04:35:13;;;;;;;7.75;4.82;;;;;;;;;;5095917;28;20024;-81
2022/12/12 04:37:43;;;;;;;4.90;4.30;;;;;;;;;;5094632;28;20104;-82
2022/12/12 04:40:12;;;;;;;6.15;5.03;;;;;;;;;;5094753;28;20032;-81
2022/12/12 04:42:43;;;;;;;5.88;4.63;;;;;;;;;;5077790;28;20178;-81
2022/12/12 04:45:18;;;;;;;5.10;4.40;;;;;;;;;;5094673;28;20035;-81
2022/12/12 04:47:46;;;;;;;7.97;4.63;;;;;;;;;;5094456;28;20020;-81
2022/12/12 04:50:12;;;;;;;5.30;4.60;;;;;;;;;;5094375;28;20075;-81
2022/12/12 04:52:38;;;;;;;6.55;4.60;;;;;;;;;;5094415;28;20027;-81
2022/12/12 04:55:10;;;;;;;5.55;4.85;;;;;;;;;;5077524;28;20051;-81
2022/12/12 04:57:40;;;;;;;6.20;4.80;;;;;;;;;;5094609;28;20024;-81
2022/12/12 05:00:07;;;;;;;5.35;4.68;;;;;;;;;;5094723;28;20028;-81
2022/12/12 05:02:36;;;;;;;8.73;5.15;;;;;;;;;;5094045;28;20504;-81
2022/12/12 05:05:06;;;;;;;6.40;5.00;;;;;;;;;;5095563;28;20032;-81
2022/12/12 05:07:40;;;;;;;6.43;4.53;;;;;;;;;;5094430;28;20031;-84
2022/12/12 05:10:09;;;;;;;8.35;4.60;;;;;;;;;;5093314;28;20042;-81
2022/12/12 05:12:46;;;;;;;9.70;4.47;;;;;;;;;;5094147;28;20036;-81
2022/12/12 05:15:13;;;;;;;9.40;4.40;;;;;;;;;;5094326;28;20519;-82
2022/12/12 05:17:42;;;;;;;6.78;5.20;;;;;;;;;;5095568;28;20385;-82
2022/12/12 05:20:09;;;;;;;8.57;4.65;;;;;;;;;;5094127;28;20481;-82
2022/12/12 05:22:34;;;;;;;6.03;4.65;;;;;;;;;;5095111;28;20105;-81
2022/12/12 05:25:00;;;;;;;8.60;4.50;;;;;;;;;;5095345;28;20039;-81
2022/12/12 05:27:25;;;;;;;7.28;4.82;;;;;;;;;;5077018;28;20024;-81
2022/12/12 05:29:51;;;;;;;6.93;4.38;;;;;;;;;;5060272;28;20048;-79
2022/12/12 05:32:16;;;;;;;10.73;5.38;;;;;;;;;;5094616;28;20106;-80
2022/12/12 05:34:41;;;;;;;13.85;5.45;;;;;;;;;;5094352;28;20047;-82
2022/12/12 05:37:07;;;;;;;12.15;5.80;;;;;;;;;;5075924;28;20034;-81
2022/12/12 05:39:32;;;;;;;27.83;6.38;;;;;;;;;;5076140;28;20028;-81
2022/12/12 05:41:58;;;;;;;14.15;5.60;;;;;;;;;;5059137;28;20028;-81
2022/12/12 05:44:23;;;;;;;16.20;5.60;;;;;;;;;;5076128;28;20032;-82
2022/12/12 05:46:48;;;;;;;12.02;5.75;;;;;;;;;;5094079;28;20591;-80
2022/12/12 05:49:14;;;;;;;9.93;5.30;;;;;;;;;;5093726;28;20382;-80
2022/12/12 05:51:39;;;;;;;17.30;5.75;;;;;;;;;;5092650;28;20024;-78
2022/12/12 05:54:04;;;;;;;15.98;5.60;;;;;;;;;;5093727;28;20028;-79
2022/12/12 05:56:30;;;;;;;19.30;6.10;;;;;;;;;;5093824;28;20051;-77
2022/12/12 05:58:55;;;;;;;17.23;5.53;;;;;;;;;;5093653;28;20031;-77
2022/12/12 06:01:20;;;;;;;24.98;7.22;;;;;;;;;;5093733;28;20028;-78
2022/12/12 06:03:46;;;;;;;26.75;7.18;;;;;;;;;;5093538;28;20024;-78
2022/12/12 06:06:11;;;;;;;22.92;7.70;;;;;;;;;;5093544;28;20035;-78
2022/12/12 06:08:36;;;;;;;32.55;8.88;;;;;;;;;;5093362;28;20458;-78
2022/12/12 06:11:06;;;;;;;18.73;7.05;;;;;;;;;;5093495;28;20055;-78
2022/12/12 06:13:32;;;;;;;24.20;8.18;;;;;;;;;;5075352;28;20062;-78
2022/12/12 06:15:57;;;;;;;21.90;8.43;;;;;;;;;;5093348;28;20032;-78
2022/12/12 06:18:22;;;;;;;27.10;7.78;;;;;;;;;;5093117;28;20111;-78
2022/12/12 06:20:48;;;;;;;23.17;8.52;;;;;;;;;;5092408;28;20040;-79
2022/12/12 06:23:13;;;;;;;24.30;8.10;;;;;;;;;;5092482;28;20072;-77
2022/12/12 06:25:39;;;;;;;23.83;7.70;;;;;;;;;;5094024;28;20498;-77
2022/12/12 06:28:04;;;;;;;23.35;8.25;;;;;;;;;;5075676;28;20066;-77
2022/12/12 06:30:30;;;;;;;17.50;7.78;;;;;;;;;;5094376;28;20096;-77
2022/12/12 06:32:55;;;;;;;18.50;7.45;;;;;;;;;;5093942;28;20076;-78
2022/12/12 06:35:21;;;;;;;14.15;7.75;;;;;;;;;;5093403;28;20052;-77
2022/12/12 06:37:47;;;;;;;18.65;7.47;;;;;;;;;;5075596;28;20047;-77
2022/12/12 06:40:13;;;;;;;16.02;7.00;;;;;;;;;;5076251;28;20039;-77
2022/12/12 06:42:38;;;;;;;19.65;8.40;;;;;;;;;;5093944;28;20028;-77
2022/12/12 06:45:05;;;;;;;14.88;7.30;;;;;;;;;;5093728;28;20024;-77
2022/12/12 06:47:30;;;;;;;20.48;7.55;;;;;;;;;;5075895;28;20379;-77
2022/12/12 06:49:55;;;;;;;11.57;7.03;;;;;;;;;;5075663;28;20034;-77
2022/12/12 06:52:21;;;;;;;17.85;7.55;;;;;;;;;;5075391;28;20429;-77
2022/12/12 06:54:46;;;;;;;14.10;7.07;;;;;;;;;;5075354;28;20067;-75
2022/12/12 06:57:12;;;;;;;13.93;7.00;;;;;;;;;;5093754;28;20028;-77
2022/12/12 06:59:37;;;;;;;13.27;6.93;;;;;;;;;;5075504;28;20043;-77
2022/12/12 07:02:02;;;;;;;10.82;6.78;;;;;;;;;;5092148;28;20039;-75
2022/12/12 07:04:28;;;;;;;8.63;6.18;;;;;;;;;;5058883;28;20028;-77
2022/12/12 07:06:53;;;;;;;13.15;6.63;;;;;;;;;;5075357;28;20382;-75
2022/12/12 07:09:19;;;;;;;9.80;6.93;;;;;;;;;;5075365;28;20039;-77
2022/12/12 07:11:45;;;;;;;11.98;6.60;;;;;;;;;;5075669;28;20036;-77
2022/12/12 07:14:10;;;;;;;9.95;6.32;;;;;;;;;;5075485;28;20032;-77
2022/12/12 07:16:36;;;;;;;10.50;6.70;;;;;;;;;;5058292;28;20032;-77
2022/12/12 07:19:02;;;;;;;11.15;6.63;;;;;;;;;;5075155;28;20036;-78
2022/12/12 07:21:27;;;;;;;13.00;6.78;;;;;;;;;;5075193;28;20039;-78
2022/12/12 07:23:55;;;;;;;10.20;6.90;;;;;;;;;;5075335;28;20036;-77
2022/12/12 07:26:22;;;;;;;8.70;6.80;;;;;;;;;;5075103;28;20077;-77
2022/12/12 07:28:48;;;;;;;7.88;6.20;;;;;;;;;;5058524;28;20061;-77
2022/12/12 07:31:16;;;;;;;10.10;6.50;;;;;;;;;;5074996;28;20024;-77
2022/12/12 07:33:41;;;;;;;10.05;5.95;;;;;;;;;;5059514;28;20032;-78
2022/12/12 07:36:07;;;;;;;11.13;6.97;;;;;;;;;;5078948;28;20031;-77
2022/12/12 07:38:33;;;;;;;8.85;6.40;;;;;;;;;;5062281;28;20020;-77
2022/12/12 07:41:07;;;;;;;8.88;6.45;;;;;;;;;;5062680;28;20433;-78
2022/12/12 07:43:37;;;;;;;8.65;6.65;;;;;;;;;;5079222;28;20038;-77
2022/12/12 07:46:08;;;;;;;11.05;6.70;;;;;;;;;;5078840;28;20032;-77
2022/12/12 07:48:34;;;;;;;11.52;6.75;;;;;;;;;;5078950;28;20041;-78
2022/12/12 07:51:00;;;;;;;11.05;7.30;;;;;;;;;;5062092;28;20031;-77
2022/12/12 07:53:26;;;;;;;9.10;6.95;;;;;;;;;;5079298;28;20020;-77
2022/12/12 07:55:52;;;;;;;9.05;6.13;;;;;;;;;;5078642;28;20071;-76
2022/12/12 07:58:17;;;;;;;12.60;7.15;;;;;;;;;;5078515;28;20047;-76
2022/12/12 08:00:43;;;;;;;10.93;7.07;;;;;;;;;;5096861;28;20036;-76
2022/12/12 08:03:08;;;;;;;10.15;7.03;;;;;;;;;;5096622;28;20070;-76
2022/12/12 08:05:34;;;;;;;11.80;8.07;;;;;;;;;;5078742;28;20035;-75
2022/12/12 08:07:59;;;;;;;11.57;8.02;;;;;;;;;;5062423;28;20036;-76
2022/12/12 08:10:25;;;;;;;11.23;7.30;;;;;;;;;;5096479;28;20406;-76
2022/12/12 08:12:50;;;;;;;9.95;7.20;;;;;;;;;;5061629;28;20085;-78
2022/12/12 08:15:16;;;;;;;15.25;7.03;;;;;;;;;;5096869;28;20111;-76
2022/12/12 08:17:42;;;;;;;8.50;6.47;;;;;;;;;;5078265;28;20035;-75
2022/12/12 08:20:08;;;;;;;9.75;7.35;;;;;;;;;;5096572;28;20544;-76
2022/12/12 08:22:34;;;;;;;10.13;6.18;;;;;;;;;;5077986;28;20056;-76
2022/12/12 08:24:59;;;;;;;18.48;6.53;;;;;;;;;;5096405;28;20086;-77
2022/12/12 08:27:24;;;;;;;13.88;7.90;;;;;;;;;;5078082;28;20044;-76
2022/12/12 08:29:51;;;;;;;17.88;6.95;;;;;;;;;;5096625;28;20063;-76
2022/12/12 08:32:17;;;;;;;11.30;6.78;;;;;;;;;;5078084;28;20066;-75
2022/12/12 08:34:43;;;;;;;14.98;6.95;;;;;;;;;;5096040;28;20064;-76
2022/12/12 08:37:08;;;;;;;20.50;6.88;;;;;;;;;;5095818;28;20020;-77
2022/12/12 08:39:33;;;;;;;9.52;6.30;;;;;;;;;;5061123;28;20399;-77
2022/12/12 08:41:59;;;;;;;8.93;6.03;;;;;;;;;;5060984;28;20032;-77
2022/12/12 08:44:24;;;;;;;9.98;6.25;;;;;;;;;;5096304;28;20036;-76
2022/12/12 08:46:50;;;;;;;8.23;5.78;;;;;;;;;;5077529;28;20093;-78
2022/12/12 08:49:15;;;;;;;8.80;5.82;;;;;;;;;;5060943;28;20031;-77
2022/12/12 08:51:41;;;;;;;8.48;5.50;;;;;;;;;;5095725;28;20429;-77
2022/12/12 08:54:07;;;;;;;10.15;5.68;;;;;;;;;;5096249;28;20032;-77
2022/12/12 08:56:32;;;;;;;13.35;6.10;;;;;;;;;;5095362;28;20489;-76
2022/12/12 08:58:58;;;;;;;9.95;6.32;;;;;;;;;;5095575;28;20371;-77
2022/12/12 09:01:25;;;;;;;10.65;6.32;;;;;;;;;;5096014;28;20081;-76
2022/12/12 09:03:52;;;;;;;11.70;6.30;;;;;;;;;;5077421;28;20477;-76
2022/12/12 09:06:18;;;;;;;12.82;8.50;;;;;;;;;;5060870;28;20081;-75
2022/12/12 09:08:43;;;;;;;17.25;8.38;;;;;;;;;;5077523;28;20028;-76
2022/12/12 09:11:10;;;;;;;11.68;8.63;;;;;;;;;;5060490;28;20028;-77
2022/12/12 09:13:36;;;;;;;12.63;8.15;;;;;;;;;;5077392;28;20027;-76
2022/12/12 09:16:02;;;;;;;12.52;7.72;;;;;;;;;;5093191;28;20057;-76
2022/12/12 09:18:28;;;;;;;13.20;8.18;;;;;;;;;;5094838;28;20020;-75
2022/12/12 09:20:55;;;;;;;12.75;8.25;;;;;;;;;;5076895;28;20470;-78
2022/12/12 09:23:21;;;;;;;12.48;8.77;;;;;;;;;;5094961;28;20540;-76
2022/12/12 09:25:47;;;;;;;11.32;7.60;;;;;;;;;;5076992;28;20035;-76
2022/12/12 09:28:14;;;;;;;12.23;8.05;;;;;;;;;;5077023;28;20046;-77
2022/12/12 09:30:41;;;;;;;10.60;8.10;;;;;;;;;;5077187;28;20016;-77
2022/12/12 09:33:06;;;;;;;10.13;7.97;;;;;;;;;;5060400;28;20101;-77
2022/12/12 09:35:32;;;;;;;12.95;7.57;;;;;;;;;;5094862;28;20027;-77
2022/12/12 09:37:57;;;;;;;13.23;7.88;;;;;;;;;;5076963;28;20027;-77
2022/12/12 09:40:30;;;;;;;11.95;8.55;;;;;;;;;;5076631;28;20035;-77
2022/12/12 09:42:55;;;;;;;9.38;7.13;;;;;;;;;;5076624;28;20034;-78
2022/12/12 09:45:21;;;;;;;10.95;8.23;;;;;;;;;;5060009;28;20114;-78
2022/12/12 09:48:06;;;;;;;11.50;7.50;;;;;;;;;;5077062;28;20028;-78
2022/12/12 09:50:35;;;;;;;10.20;7.90;;;;;;;;;;5075993;28;20443;-77
2022/12/12 09:53:04;;;;;;;11.30;7.85;;;;;;;;;;5094504;28;20028;-78
2022/12/12 09:55:45;;;;;;;11.48;7.97;;;;;;;;;;5076576;28;20153;-78
2022/12/12 09:58:21;;;;;;;12.15;8.38;;;;;;;;;;5094061;28;20107;-78
2022/12/12 10:00:51;;;;;;;11.82;8.00;;;;;;;;;;5094614;28;20024;-77
2022/12/12 10:03:29;;;;;;;11.70;8.05;;;;;;;;;;5059532;28;20024;-78
2022/12/12 10:06:02;;;;;;;12.38;8.48;;;;;;;;;;5076681;28;20028;-77
2022/12/12 10:08:33;;;;;;;10.20;7.90;;;;;;;;;;5094229;28;20513;-78
2022/12/12 10:11:05;;;;;;;12.00;8.20;;;;;;;;;;5075940;28;20076;-78
2022/12/12 10:13:32;;;;;;;11.27;8.05;;;;;;;;;;5060289;28;20077;-77
2022/12/12 10:16:09;;;;;;;12.25;8.80;;;;;;;;;;5094143;28;20028;-77
2022/12/12 10:18:43;;;;;;;10.07;7.78;;;;;;;;;;5058955;28;20373;-77
2022/12/12 10:21:16;;;;;;;10.65;8.25;;;;;;;;;;5076058;28;20085;-78
2022/12/12 10:23:49;;;;;;;14.90;8.77;;;;;;;;;;5075999;28;20475;-77
2022/12/12 10:26:18;;;;;;;12.57;8.70;;;;;;;;;;5076032;28;20036;-78
2022/12/12 10:28:44;;;;;;;11.75;8.30;;;;;;;;;;5094125;28;20157;-76
2022/12/12 10:31:51;;;;;;;11.75;8.10;;;;;;;;;;5076010;28;20102;-78
2022/12/12 10:34:29;;;;;;;10.00;8.02;;;;;;;;;;5068579;28;20044;-78
2022/12/12 10:37:00;;;;;;;10.45;7.80;;;;;;;;;;5075483;28;20039;-77
2022/12/12 10:39:50;;;;;;;12.63;8.15;;;;;;;;;;5093719;28;20039;-77
2022/12/12 10:42:24;;;;;;;12.40;8.43;;;;;;;;;;5093870;28;20076;-77
2022/12/12 10:45:02;;;;;;;15.02;8.65;;;;;;;;;;5075759;28;20063;-77
2022/12/12 10:47:27;;;;;;;11.50;8.27;;;;;;;;;;5093946;28;20020;-78
2022/12/12 10:50:24;;;;;;;11.70;8.68;;;;;;;;;;5076071;28;20028;-78
2022/12/12 10:52:49;;;;;;;10.38;7.78;;;;;;;;;;5057481;28;20487;-77
2022/12/12 10:55:18;;;;;;;12.65;7.50;;;;;;;;;;5075395;28;20039;-77
2022/12/12 10:57:44;;;;;;;11.60;8.50;;;;;;;;;;5093275;28;20323;-77
2022/12/12 11:00:29;;;;;;;12.25;8.40;;;;;;;;;;5093327;28;20047;-75
2022/12/12 11:02:56;;;;;;;11.80;8.70;;;;;;;;;;5075661;28;20103;-79
2022/12/12 11:05:25;;;;;;;9.38;7.47;;;;;;;;;;5058638;28;20543;-77
2022/12/12 11:08:25;;;;;;;13.13;7.93;;;;;;;;;;5075815;28;20023;-77
2022/12/12 11:10:59;;;;;;;12.80;8.30;;;;;;;;;;5073716;28;20056;-79
2022/12/12 11:13:24;;;;;;;;;;;;;;;;;;5080578;28;20050;-76
2022/12/12 11:15:51;;;;;;;14.02;8.35;;;;;;;;;;5062825;28;19908;-78
2022/12/12 11:18:20;;;;;;;8.63;7.38;;;;;;;;;;5097605;28;20059;-78
2022/12/12 11:21:10;;;;;;;12.15;7.88;;;;;;;;;;5079234;28;20419;-78
2022/12/12 11:23:39;;;;;;;10.65;7.30;;;;;;;;;;5079027;28;20099;-78
2022/12/12 11:26:13;;;;;;;11.48;7.80;;;;;;;;;;5079125;28;20032;-78
2022/12/12 11:28:39;;;;;;;10.27;7.35;;;;;;;;;;5097273;28;20024;-78
2022/12/12 11:31:08;;;;;;;9.93;7.05;;;;;;;;;;5079333;28;20019;-78
2022/12/12 11:33:38;;;;;;;13.27;8.13;;;;;;;;;;5097235;28;20038;-78
2022/12/12 11:36:05;;;;;;;12.10;7.57;;;;;;;;;;5078979;28;20541;-77
2022/12/12 11:38:38;;;;;;;10.02;7.10;;;;;;;;;;5096934;28;20055;-78
2022/12/12 11:41:10;;;;;;;9.68;7.78;;;;;;;;;;5079539;28;20378;-78
2022/12/12 11:43:44;;;;;;;11.48;7.55;;;;;;;;;;5062173;28;20423;-77
2022/12/12 11:46:12;;;;;;;10.80;7.32;;;;;;;;;;5096956;28;20102;-78
2022/12/12 11:48:50;;;;;;;11.38;7.18;;;;;;;;;;5095972;28;20024;-78
2022/12/12 11:51:32;;;;;;;12.20;7.70;;;;;;;;;;5096101;28;20024;-78
2022/12/12 11:53:58;;;;;;;13.30;7.32;;;;;;;;;;5096053;28;20028;-78
2022/12/12 11:56:39;;;;;;;10.13;7.07;;;;;;;;;;5077976;28;20020;-78
2022/12/12 11:59:20;;;;;;;12.52;7.25;;;;;;;;;;5096636;28;20031;-78
2022/12/12 12:02:15;;;;;;;9.23;6.93;;;;;;;;;;5061836;28;20117;-78
2022/12/12 12:04:44;;;;;;;13.75;7.05;;;;;;;;;;5024775;28;20419;-77
2022/12/12 12:07:35;;;;;;;10.18;7.03;;;;;;;;;;5078623;28;20024;-78
2022/12/12 12:10:28;;;;;;;15.40;7.10;;;;;;;;;;5078193;28;20502;-78
2022/12/12 12:13:11;;;;;;;9.90;7.13;;;;;;;;;;5096460;28;20043;-77
2022/12/12 12:15:45;;;;;;;11.20;7.25;;;;;;;;;;5096651;28;20069;-78
2022/12/12 12:18:13;;;;;;;9.82;7.20;;;;;;;;;;5061382;28;20025;-77
2022/12/12 12:20:39;;;;;;;10.75;8.10;;;;;;;;;;5096272;28;20039;-78
2022/12/12 12:23:44;;;;;;;12.48;7.57;;;;;;;;;;5077957;28;20040;-77
2022/12/12 12:26:18;;;;;;;10.85;7.50;;;;;;;;;;5078063;28;20312;-77
2022/12/12 12:29:04;;;;;;;10.30;7.35;;;;;;;;;;5096705;28;20024;-78
2022/12/12 12:32:11;;;;;;;11.13;7.60;;;;;;;;;;5096320;28;20095;-78
2022/12/12 12:34:55;;;;;;;13.13;7.85;;;;;;;;;;5078089;28;20027;-78
2022/12/12 12:37:32;;;;;;;10.60;7.15;;;;;;;;;;5096129;28;20020;-78
2022/12/12 12:40:16;;;;;;;8.93;6.97;;;;;;;;;;5095887;28;20032;-77
2022/12/12 12:43:00;;;;;;;11.40;7.70;;;;;;;;;;5077827;28;20125;-78
2022/12/12 12:45:35;;;;;;;;;;;;;;;;;;5078571;28;20488;-76
2022/12/12 12:48:09;;;;;;;9.85;7.57;;;;;;;;;;5077815;28;19912;-78
2022/12/12 12:51:01;;;;;;;10.80;7.57;;;;;;;;;;5077565;28;20023;-78
2022/12/12 12:53:40;;;;;;;11.35;7.60;;;;;;;;;;5066910;28;20457;-77
2022/12/12 12:56:22;;;;;;;11.95;7.20;;;;;;;;;;5077886;28;20381;-77
2022/12/12 12:58:48;;;;;;;10.05;7.32;;;;;;;;;;5095509;28;20024;-76
2022/12/12 13:01:20;;;;;;;13.20;7.70;;;;;;;;;;5077800;28;20032;-79
2022/12/12 13:04:01;;;;;;;11.10;7.13;;;;;;;;;;5095711;28;20027;-77
2022/12/12 13:06:41;;;;;;;10.13;7.45;;;;;;;;;;5077311;28;20028;-77
2022/12/12 13:09:31;;;;;;;10.70;7.10;;;;;;;;;;5077192;28;20068;-77
2022/12/12 13:12:39;;;;;;;9.88;7.03;;;;;;;;;;5059572;28;20427;-77
2022/12/12 13:15:25;;;;;;;9.73;6.70;;;;;;;;;;5048578;28;20029;-77
2022/12/12 13:18:00;;;;;;;8.63;7.00;;;;;;;;;;5095381;28;20383;-78
2022/12/12 13:20:26;;;;;;;9.98;6.50;;;;;;;;;;5077333;28;20486;-77
2022/12/12 13:23:00;;;;;;;9.70;6.65;;;;;;;;;;5076859;28;20105;-77
2022/12/12 13:25:47;;;;;;;9.80;6.53;;;;;;;;;;5076928;28;20084;-77
2022/12/12 13:28:37;;;;;;;10.93;6.82;;;;;;;;;;5095332;28;20023;-77
2022/12/12 13:31:42;;;;;;;10.13;6.43;;;;;;;;;;5059208;28;20056;-77
2022/12/12 13:34:26;;;;;;;8.23;5.82;;;;;;;;;;4996543;28;20049;-77
2022/12/12 13:36:53;;;;;;;8.68;6.00;;;;;;;;;;5090293;28;20028;-77
2022/12/12 13:39:30;;;;;;;10.07;6.32;;;;;;;;;;5077060;28;20123;-77
2022/12/12 13:42:04;;;;;;;7.30;6.18;;;;;;;;;;5094592;28;20024;-78
2022/12/12 13:44:32;;;;;;;;;;;;;;;;;;5077375;28;20051;-77
2022/12/12 13:46:57;;;;;;;8.27;5.70;;;;;;;;;;5094614;28;20328;-77
2022/12/12 13:49:29;;;;;;;8.23;6.25;;;;;;;;;;5077093;28;20048;-77
2022/12/12 13:52:26;;;;;;;8.38;6.20;;;;;;;;;;5076447;28;20069;-77
2022/12/12 13:54:54;;;;;;;9.18;6.43;;;;;;;;;;5076284;28;20023;-77
2022/12/12 13:57:25;;;;;;;8.75;6.43;;;;;;;;;;5059258;28;20023;-77
2022/12/12 13:59:51;;;;;;;9.13;6.05;;;;;;;;;;5076731;28;20038;-76
2022/12/12 14:02:28;;;;;;;9.50;5.82;;;;;;;;;;5076984;28;20106;-76
2022/12/12 14:05:48;;;;;;;9.25;5.80;;;;;;;;;;5076376;28;20118;-77
2022/12/12 14:08:13;;;;;;;8.50;5.53;;;;;;;;;;5013162;28;20105;-77
2022/12/12 14:10:59;;;;;;;11.35;5.35;;;;;;;;;;5012475;28;20464;-77
2022/12/12 14:13:27;;;;;;;9.18;5.43;;;;;;;;;;5011975;28;20475;-77
2022/12/12 14:16:04;;;;;;;7.97;5.07;;;;;;;;;;4995687;28;20022;-77
2022/12/12 14:18:47;;;;;;;11.27;4.80;;;;;;;;;;5012067;28;20079;-77
2022/12/12 14:21:14;;;;;;;;;;;;;;;;;;5012490;28;20150;-77
2022/12/12 14:23:42;;;;;;;7.18;4.70;;;;;;;;;;4995573;28;19961;-77
2022/12/12 14:26:28;;;;;;;6.88;4.88;;;;;;;;;;5012420;28;20119;-77
2022/12/12 14:29:19;;;;;;;6.22;4.60;;;;;;;;;;5012493;28;20030;-77
2022/12/12 14:31:52;;;;;;;7.10;4.80;;;;;;;;;;5008908;28;20061;-78
2022/12/12 14:34:28;;;;;;;6.27;4.80;;;;;;;;;;5011857;28;20029;-78
2022/12/12 14:37:22;;;;;;;6.57;4.90;;;;;;;;;;4995818;28;20488;-78
2022/12/12 14:39:47;;;;;;;;;;;;;;;;;;4993141;28;20042;-77
2022/12/12 14:43:00;;;;;;;7.07;4.55;;;;;;;;;;5051983;28;20250;-77
2022/12/12 14:45:33;;;;;;;8.38;4.38;;;;;;;;;;5065988;28;20044;-78
2022/12/12 14:48:17;;;;;;;6.82;4.57;;;;;;;;;;5055555;28;20151;-77
2022/12/12 14:50:46;;;;;;;9.88;4.90;;;;;;;;;;5073479;28;20031;-78
2022/12/12 14:53:15;;;;;;;7.88;4.97;;;;;;;;;;5055783;28;20024;-77
2022/12/12 14:55:53;;;;;;;6.55;4.60;;;;;;;;;;5055515;28;20032;-77
2022/12/12 14:58:25;;;;;;;9.93;5.05;;;;;;;;;;5055285;28;20162;-78
2022/12/12 15:00:53;;;;;;;7.95;4.97;;;;;;;;;;5055793;28;20033;-78
2022/12/12 15:03:28;;;;;;;8.10;4.57;;;;;;;;;;5055430;28;20107;-78
2022/12/12 15:06:27;;;;;;;7.03;4.55;;;;;;;;;;5055314;28;20052;-78
2022/12/12 15:08:56;;;;;;;9.10;4.50;;;;;;;;;;5038622;28;20048;-78
2022/12/12 15:11:25;;;;;;;7.20;4.90;;;;;;;;;;5055579;28;20112;-78
2022/12/12 15:13:59;;;;;;;7.55;5.20;;;;;;;;;;5038758;28;20035;-78
2022/12/12 15:16:29;;;;;;;9.27;5.22;;;;;;;;;;5073511;28;20038;-78